Time;durP1;ratioP1;P1;durP2;ratioP2;P2;SDS_P1;SDS_P2;PMS_P1;PMS_P2;Temp;Humidity;BMP_temperature;BMP_pressure;BME280_temperature;BME280_humidity;BME280_pressure;Samples;Min_cycle;Max_cycle;Signal;HPM_P1;HPM_P2
2022/11/15 00:01:17;;;;;;;21.20;15.50;;;8.70;99.90;;;;;;4991207;28;20038;-69
2022/11/15 00:03:43;;;;;;;22.40;14.77;;;8.60;99.90;;;;;;4975909;28;20057;-69
2022/11/15 00:06:09;;;;;;;22.55;14.40;;;8.70;99.90;;;;;;4976031;28;20054;-69
2022/11/15 00:08:35;;;;;;;22.88;15.38;;;8.60;99.90;;;;;;4991613;28;20108;-69
2022/11/15 00:11:02;;;;;;;20.35;14.60;;;8.60;99.90;;;;;;5011589;28;20041;-69
2022/11/15 00:13:29;;;;;;;22.15;15.88;;;8.60;99.90;;;;;;5012057;28;20512;-69
2022/11/15 00:15:59;;;;;;;21.00;14.82;;;8.60;99.90;;;;;;5011876;28;20061;-70
2022/11/15 00:18:25;;;;;;;22.80;15.15;;;8.50;99.90;;;;;;5011066;28;20120;-69
2022/11/15 00:20:51;;;;;;;21.55;15.82;;;8.50;99.90;;;;;;4995461;28;20129;-69
2022/11/15 00:23:16;;;;;;;21.02;14.75;;;8.50;99.90;;;;;;5012047;28;20092;-69
2022/11/15 00:25:42;;;;;;;23.40;16.52;;;8.50;99.90;;;;;;4978215;28;20597;-69
2022/11/15 00:28:08;;;;;;;22.63;14.73;;;8.50;99.90;;;;;;5010695;28;20398;-69
2022/11/15 00:30:34;;;;;;;21.80;15.20;;;8.50;99.90;;;;;;5007413;28;20061;-69
2022/11/15 00:33:04;;;;;;;20.45;13.75;;;8.50;99.90;;;;;;4992521;28;20046;-69
2022/11/15 00:35:34;;;;;;;21.67;13.57;;;8.40;99.90;;;;;;5010900;28;20562;-69
2022/11/15 00:38:00;;;;;;;20.42;14.15;;;8.50;99.90;;;;;;4993035;28;20038;-69
2022/11/15 00:40:26;;;;;;;22.05;15.32;;;8.50;99.90;;;;;;4997915;28;20113;-69
2022/11/15 00:42:51;;;;;;;22.27;13.70;;;8.40;99.90;;;;;;5013852;28;20113;-69
2022/11/15 00:45:17;;;;;;;20.35;13.80;;;8.50;99.90;;;;;;5003758;28;20046;-69
2022/11/15 00:47:46;;;;;;;19.98;13.98;;;8.60;99.90;;;;;;4995373;28;20045;-69
2022/11/15 00:50:12;;;;;;;19.42;14.02;;;8.60;99.90;;;;;;4979121;28;20038;-69
2022/11/15 00:52:38;;;;;;;21.40;13.98;;;8.50;99.90;;;;;;5020467;28;20042;-69
2022/11/15 00:55:04;;;;;;;20.45;12.70;;;8.40;99.90;;;;;;4985279;28;20052;-69
2022/11/15 00:57:30;;;;;;;19.30;13.50;;;8.60;99.90;;;;;;4994965;28;20050;-69
2022/11/15 00:59:55;;;;;;;19.05;13.68;;;8.50;99.90;;;;;;5016897;28;20096;-69
2022/11/15 01:02:21;;;;;;;20.50;14.60;;;8.40;99.90;;;;;;4993463;28;20033;-69
2022/11/15 01:04:46;;;;;;;21.48;15.25;;;8.40;99.90;;;;;;5013321;28;20050;-69
2022/11/15 01:07:12;;;;;;;21.73;15.27;;;8.40;99.90;;;;;;5014398;28;20124;-69
2022/11/15 01:09:38;;;;;;;23.63;16.67;;;8.40;99.90;;;;;;4998526;28;20041;-69
2022/11/15 01:12:04;;;;;;;23.50;14.93;;;8.50;99.90;;;;;;5014009;28;20501;-69
2022/11/15 01:14:29;;;;;;;22.10;15.00;;;8.40;99.90;;;;;;5014636;28;20054;-69
2022/11/15 01:16:55;;;;;;;23.48;14.50;;;8.50;99.90;;;;;;5014589;28;20165;-69
2022/11/15 01:19:20;;;;;;;24.48;14.63;;;8.50;99.90;;;;;;5014324;28;20482;-69
2022/11/15 01:21:49;;;;;;;25.05;15.50;;;8.50;99.90;;;;;;4996488;28;20034;-69
2022/11/15 01:24:15;;;;;;;22.45;15.13;;;8.50;99.90;;;;;;5013741;28;20504;-69
2022/11/15 01:26:41;;;;;;;21.85;15.30;;;8.40;99.90;;;;;;5012071;28;20125;-69
2022/11/15 01:29:06;;;;;;;21.27;14.27;;;8.50;99.90;;;;;;5013652;28;20482;-69
2022/11/15 01:31:32;;;;;;;20.75;14.50;;;8.60;99.90;;;;;;5013459;28;20128;-69
2022/11/15 01:33:57;;;;;;;21.20;14.38;;;8.50;99.90;;;;;;5014019;28;20034;-69
2022/11/15 01:36:23;;;;;;;20.23;11.90;;;8.50;99.90;;;;;;4997621;28;20469;-69
2022/11/15 01:38:57;;;;;;;21.85;13.13;;;8.50;99.90;;;;;;4998008;28;20161;-69
2022/11/15 01:41:26;;;;;;;21.63;13.80;;;8.50;99.90;;;;;;4997055;28;20046;-69
2022/11/15 01:43:54;;;;;;;21.30;13.88;;;8.50;99.90;;;;;;4996551;28;20041;-69
2022/11/15 01:46:25;;;;;;;21.63;13.27;;;8.50;99.90;;;;;;5014113;28;20490;-69
2022/11/15 01:48:54;;;;;;;23.60;14.65;;;8.40;99.90;;;;;;5013844;28;20038;-69
2022/11/15 01:51:22;;;;;;;24.08;15.10;;;8.40;99.90;;;;;;4997486;28;20042;-69
2022/11/15 01:53:52;;;;;;;23.35;14.48;;;8.40;99.90;;;;;;4996605;28;20132;-69
2022/11/15 01:56:21;;;;;;;23.70;15.27;;;8.30;99.90;;;;;;4990634;28;20102;-69
2022/11/15 01:58:47;;;;;;;23.45;13.52;;;8.30;99.90;;;;;;4996460;28;20041;-69
2022/11/15 02:01:14;;;;;;;24.83;15.68;;;8.30;99.90;;;;;;5013521;28;20049;-68
2022/11/15 02:03:54;;;;;;;24.77;15.25;;;8.40;99.90;;;;;;4996600;28;20049;-69
2022/11/15 02:06:21;;;;;;;24.70;15.05;;;8.40;99.90;;;;;;5013409;28;20077;-69
2022/11/15 02:08:47;;;;;;;26.13;14.73;;;8.40;99.90;;;;;;4997306;28;20125;-69
2022/11/15 02:11:13;;;;;;;26.33;15.63;;;8.40;99.90;;;;;;5013319;28;20050;-69
2022/11/15 02:13:39;;;;;;;26.35;15.63;;;8.40;99.90;;;;;;4993131;28;20398;-69
2022/11/15 02:16:10;;;;;;;21.80;14.88;;;8.40;99.90;;;;;;4994010;28;20050;-69
2022/11/15 02:18:50;;;;;;;25.00;15.03;;;8.40;99.90;;;;;;4978740;28;20545;-69
2022/11/15 02:21:36;;;;;;;25.08;15.93;;;8.40;99.90;;;;;;4996371;28;20840;-69
2022/11/15 02:24:17;;;;;;;25.23;15.25;;;8.40;99.90;;;;;;4997122;28;20124;-69
2022/11/15 02:27:04;;;;;;;25.10;15.27;;;8.30;99.90;;;;;;5012065;28;20065;-69
2022/11/15 02:29:44;;;;;;;22.45;15.50;;;8.30;99.90;;;;;;5013263;28;20402;-69
2022/11/15 02:32:23;;;;;;;25.08;15.75;;;8.30;99.90;;;;;;5012532;28;20504;-69
2022/11/15 02:34:57;;;;;;;25.52;16.70;;;8.30;99.90;;;;;;5013129;28;20056;-69
2022/11/15 02:37:51;;;;;;;26.90;15.82;;;8.30;99.90;;;;;;4995896;28;20520;-69
2022/11/15 02:40:35;;;;;;;23.42;15.05;;;8.30;99.90;;;;;;4996503;28;20045;-69
2022/11/15 02:46:04;;;;;;;22.73;14.45;;;8.30;99.90;;;;;;5012846;28;20038;-69
2022/11/15 02:48:32;;;;;;;23.55;14.43;;;8.30;99.90;;;;;;5011991;28;20034;-69
2022/11/15 02:50:59;;;;;;;25.02;15.15;;;8.40;99.90;;;;;;4995388;28;20038;-69
2022/11/15 02:53:26;;;;;;;24.08;14.10;;;8.40;99.90;;;;;;5012665;28;20045;-69
2022/11/15 02:55:52;;;;;;;23.73;14.75;;;8.40;99.90;;;;;;4995440;28;20046;-69
2022/11/15 02:58:42;;;;;;;23.02;14.43;;;8.40;99.90;;;;;;4980821;28;20040;-69
2022/11/15 03:01:38;;;;;;;24.63;15.15;;;8.40;99.90;;;;;;4979212;28;20042;-69
2022/11/15 03:04:49;;;;;;;25.63;14.95;;;8.40;99.90;;;;;;5009200;28;20045;-69
2022/11/15 03:07:22;;;;;;;24.42;14.05;;;8.40;99.90;;;;;;5005515;28;20092;-69
2022/11/15 03:09:58;;;;;;;25.05;14.70;;;8.50;99.90;;;;;;4992304;28;20057;-69
2022/11/15 03:12:34;;;;;;;24.33;14.15;;;8.50;99.90;;;;;;4990676;28;20038;-69
2022/11/15 03:15:29;;;;;;;28.90;15.23;;;8.60;99.90;;;;;;5003776;28;20124;-69
2022/11/15 03:18:03;;;;;;;27.77;16.05;;;8.60;99.90;;;;;;4978455;28;20518;-69
2022/11/15 03:20:30;;;;;;;26.58;15.18;;;8.60;99.90;;;;;;4994718;28;20042;-69
2022/11/15 03:23:01;;;;;;;29.23;16.35;;;8.50;99.90;;;;;;5000687;28;20398;-69
2022/11/15 03:25:29;;;;;;;27.13;16.63;;;8.50;99.90;;;;;;4990417;28;20092;-69
2022/11/15 03:27:58;;;;;;;28.33;15.48;;;8.50;99.90;;;;;;5009501;28;20308;-69
2022/11/15 03:30:24;;;;;;;29.27;16.02;;;8.60;99.90;;;;;;4995215;28;20127;-69
2022/11/15 03:32:59;;;;;;;28.35;15.18;;;8.50;99.90;;;;;;5010263;28;20084;-69
2022/11/15 03:35:30;;;;;;;28.30;16.52;;;8.60;99.90;;;;;;5012270;28;20046;-69
2022/11/15 03:38:01;;;;;;;29.55;16.08;;;8.60;99.90;;;;;;5011065;28;20037;-69
2022/11/15 03:40:38;;;;;;;27.48;15.98;;;8.60;99.90;;;;;;5011133;28;20037;-69
2022/11/15 03:43:41;;;;;;;31.67;17.83;;;8.60;99.90;;;;;;4996104;28;20049;-69
2022/11/15 03:46:13;;;;;;;31.67;16.05;;;8.70;99.90;;;;;;5005348;28;20058;-69
2022/11/15 03:48:50;;;;;;;31.23;16.40;;;8.70;99.90;;;;;;5011604;28;20050;-69
2022/11/15 03:51:16;;;;;;;29.98;15.75;;;8.90;99.90;;;;;;5026089;28;20042;-69
2022/11/15 03:53:42;;;;;;;32.97;16.65;;;8.80;99.90;;;;;;5011995;28;20041;-69
2022/11/15 03:56:07;;;;;;;33.03;17.42;;;8.90;99.90;;;;;;5010255;28;20398;-69
2022/11/15 03:58:33;;;;;;;33.05;16.38;;;8.90;99.90;;;;;;5011960;28;20078;-69
2022/11/15 04:00:59;;;;;;;31.08;15.88;;;8.90;99.90;;;;;;5011010;28;20219;-69
2022/11/15 04:03:25;;;;;;;29.63;16.52;;;8.80;99.90;;;;;;5003762;28;20061;-69
2022/11/15 04:05:50;;;;;;;29.23;16.15;;;8.90;99.90;;;;;;4986892;28;20039;-69
2022/11/15 04:08:16;;;;;;;29.52;15.77;;;8.90;99.90;;;;;;5016281;28;20041;-69
2022/11/15 04:10:42;;;;;;;28.80;15.48;;;9.00;99.90;;;;;;5015916;28;20046;-69
2022/11/15 04:13:07;;;;;;;33.55;17.15;;;9.00;99.90;;;;;;5005309;28;20093;-68
2022/11/15 04:15:33;;;;;;;27.80;15.18;;;8.90;99.90;;;;;;4984247;28;20042;-68
2022/11/15 04:17:59;;;;;;;35.55;18.50;;;8.90;99.90;;;;;;5007278;28;20042;-69
2022/11/15 04:26:10;;;;;;;33.95;18.15;;;9.00;99.90;;;;;;5012887;28;20494;-69
2022/11/15 04:29:34;;;;;;;34.78;18.20;;;9.00;99.90;;;;;;4992985;28;20034;-69
2022/11/15 04:31:22;;;;;;;31.23;15.95;;;9.10;99.90;;;;;;5004936;28;20053;-68
2022/11/15 04:33:47;;;;;;;28.75;17.13;;;9.00;99.90;;;;;;4984582;28;20038;-69
2022/11/15 04:38:57;;;;;;;31.60;17.88;;;9.10;99.90;;;;;;5028197;28;20043;-69
2022/11/15 04:41:23;;;;;;;33.90;18.02;;;8.90;99.90;;;;;;4994211;28;20504;-69
2022/11/15 04:43:48;;;;;;;32.47;19.77;;;9.10;99.90;;;;;;5007015;28;20045;-69
2022/11/15 04:46:14;;;;;;;32.80;19.33;;;9.10;99.90;;;;;;5015278;28;20044;-68
2022/11/15 04:48:39;;;;;;;31.80;19.48;;;9.00;99.90;;;;;;5002196;28;20101;-69
2022/11/15 04:51:05;;;;;;;36.40;20.83;;;9.00;99.90;;;;;;4981646;28;20034;-68
2022/11/15 04:53:30;;;;;;;31.48;19.27;;;9.00;99.90;;;;;;5007931;28;20073;-69
2022/11/15 04:55:56;;;;;;;36.22;20.38;;;9.10;99.90;;;;;;4994576;28;20053;-69
2022/11/15 04:58:22;;;;;;;37.60;19.42;;;9.10;99.90;;;;;;4999364;28;20532;-69
2022/11/15 05:00:47;;;;;;;31.08;19.80;;;9.00;99.90;;;;;;4999571;28;20034;-69
2022/11/15 05:05:58;;;;;;;29.83;16.13;;;9.10;99.90;;;;;;5002517;28;20038;-69
2022/11/15 05:08:23;;;;;;;33.47;19.13;;;9.20;99.90;;;;;;5013166;28;20073;-69
2022/11/15 05:10:49;;;;;;;35.20;20.33;;;9.30;99.90;;;;;;5013526;28;20084;-69
2022/11/15 05:13:14;;;;;;;31.85;18.10;;;9.30;99.90;;;;;;4997431;28;20397;-69
2022/11/15 05:15:40;;;;;;;35.75;19.95;;;9.40;99.90;;;;;;5014594;28;20048;-69
2022/11/15 05:18:05;;;;;;;28.40;17.50;;;9.40;99.90;;;;;;4995411;28;20046;-69
2022/11/15 05:20:31;;;;;;;33.67;18.75;;;9.50;99.90;;;;;;5012744;28;20494;-68
2022/11/15 05:22:57;;;;;;;37.45;21.48;;;9.50;99.90;;;;;;4987187;28;20045;-69
2022/11/15 05:25:23;;;;;;;35.97;20.02;;;9.50;99.90;;;;;;4994886;28;20030;-69
2022/11/15 05:27:48;;;;;;;33.15;19.70;;;9.50;99.90;;;;;;5019200;28;20490;-69
2022/11/15 05:30:15;;;;;;;35.08;18.20;;;9.60;99.90;;;;;;4997201;28;20037;-69
2022/11/15 05:32:41;;;;;;;39.08;21.00;;;9.50;99.90;;;;;;5010813;28;20100;-69
2022/11/15 05:35:12;;;;;;;36.75;22.25;;;9.50;99.90;;;;;;4997010;28;20045;-68
2022/11/15 05:37:37;;;;;;;41.65;22.95;;;9.50;99.90;;;;;;5010071;28;20530;-69
2022/11/15 05:40:03;;;;;;;40.72;21.60;;;9.50;99.90;;;;;;5011814;28;20120;-69
2022/11/15 05:42:30;;;;;;;32.83;18.00;;;9.50;99.90;;;;;;4995117;28;20062;-69
2022/11/15 05:44:57;;;;;;;37.17;20.98;;;9.60;99.90;;;;;;5012462;28;20490;-69
2022/11/15 05:47:27;;;;;;;40.22;23.02;;;9.70;99.90;;;;;;4998821;28;20371;-69
2022/11/15 05:49:53;;;;;;;38.22;21.33;;;9.70;99.90;;;;;;4994157;28;20034;-69
2022/11/15 05:52:25;;;;;;;42.33;22.05;;;9.70;99.90;;;;;;4984008;28;20050;-69
2022/11/15 05:54:51;;;;;;;33.33;20.47;;;9.70;99.90;;;;;;5006943;28;20498;-69
2022/11/15 05:57:17;;;;;;;40.28;23.73;;;9.80;99.90;;;;;;4985964;28;20034;-69
2022/11/15 05:59:43;;;;;;;33.60;20.42;;;9.80;99.90;;;;;;5013667;28;20490;-69
2022/11/15 06:02:10;;;;;;;37.10;20.90;;;9.90;99.90;;;;;;4995754;28;20029;-69
2022/11/15 06:04:35;;;;;;;34.60;22.52;;;9.90;99.90;;;;;;4996504;28;20065;-69
2022/11/15 06:07:01;;;;;;;34.60;20.90;;;9.90;99.90;;;;;;5011456;28;20029;-69
2022/11/15 06:09:27;;;;;;;37.15;21.33;;;9.90;99.90;;;;;;5012387;28;20076;-69
2022/11/15 06:11:52;;;;;;;39.53;21.02;;;9.90;99.90;;;;;;4985220;28;20036;-69
2022/11/15 06:14:18;;;;;;;33.42;21.15;;;9.90;99.90;;;;;;4981962;28;20428;-69
2022/11/15 06:16:43;;;;;;;37.65;23.15;;;10.00;99.90;;;;;;4989645;28;20053;-69
2022/11/15 06:19:09;;;;;;;34.97;21.55;;;10.00;99.90;;;;;;4990436;28;20124;-69
2022/11/15 06:21:35;;;;;;;37.58;22.33;;;10.00;99.90;;;;;;4992624;28;20057;-69
2022/11/15 06:24:01;;;;;;;33.83;20.83;;;10.00;99.90;;;;;;4995191;28;20088;-69
2022/11/15 06:26:26;;;;;;;36.70;21.80;;;10.00;99.90;;;;;;5012407;28;20041;-69
2022/11/15 06:28:52;;;;;;;32.97;20.40;;;10.10;99.90;;;;;;5010882;28;20383;-69
2022/11/15 06:31:17;;;;;;;41.40;22.92;;;10.10;99.90;;;;;;4988267;28;20084;-69
2022/11/15 06:33:43;;;;;;;38.10;22.65;;;10.10;99.90;;;;;;4995235;28;20042;-69
2022/11/15 06:36:13;;;;;;;33.22;20.50;;;10.10;99.90;;;;;;4990757;28;20085;-69
2022/11/15 06:38:39;;;;;;;39.50;22.08;;;10.10;99.90;;;;;;4996813;28;20038;-69
2022/11/15 06:41:07;;;;;;;31.95;20.70;;;10.20;99.90;;;;;;4978162;28;20038;-69
2022/11/15 06:43:33;;;;;;;32.60;19.45;;;10.30;99.90;;;;;;5010506;28;20048;-69
2022/11/15 06:45:59;;;;;;;34.25;20.55;;;10.30;99.90;;;;;;5011747;28;20056;-69
2022/11/15 06:48:26;;;;;;;33.53;20.33;;;10.30;99.90;;;;;;4993050;28;20517;-69
2022/11/15 06:50:57;;;;;;;34.08;19.85;;;10.30;99.90;;;;;;4996550;28;20441;-69
2022/11/15 06:53:23;;;;;;;33.72;20.75;;;10.40;99.90;;;;;;4991704;28;20100;-69
2022/11/15 06:55:49;;;;;;;34.40;21.70;;;10.40;99.90;;;;;;4994884;28;20042;-69
2022/11/15 06:58:15;;;;;;;31.13;17.85;;;10.40;99.90;;;;;;5011061;28;20048;-69
2022/11/15 07:00:40;;;;;;;30.50;20.67;;;10.40;99.90;;;;;;5007587;28;20034;-69
2022/11/15 07:03:06;;;;;;;33.58;20.35;;;10.40;99.90;;;;;;5008146;28;20050;-69
2022/11/15 07:05:32;;;;;;;31.88;20.33;;;10.40;99.90;;;;;;5011680;28;20050;-69
2022/11/15 07:07:59;;;;;;;36.20;20.55;;;10.50;99.90;;;;;;4993097;28;20499;-69
2022/11/15 07:10:25;;;;;;;32.65;19.73;;;10.50;99.90;;;;;;5003688;28;20128;-69
2022/11/15 07:12:52;;;;;;;29.13;19.63;;;10.50;99.90;;;;;;5012472;28;20063;-69
2022/11/15 07:15:19;;;;;;;33.80;20.15;;;10.50;99.90;;;;;;4996065;28;20128;-69
2022/11/15 07:17:45;;;;;;;31.70;20.15;;;10.60;99.90;;;;;;5011839;28;20045;-69
2022/11/15 07:20:11;;;;;;;31.23;19.20;;;10.50;99.90;;;;;;4993553;28;20045;-69
2022/11/15 07:22:37;;;;;;;32.13;19.05;;;10.60;99.90;;;;;;5012307;28;20125;-69
2022/11/15 07:25:03;;;;;;;30.80;19.20;;;10.60;99.90;;;;;;4994674;28;20480;-69
2022/11/15 07:27:28;;;;;;;31.25;19.65;;;10.60;99.90;;;;;;4996046;28;20564;-68
2022/11/15 07:29:54;;;;;;;34.35;20.95;;;10.60;99.90;;;;;;4995943;28;20044;-69
2022/11/15 07:32:20;;;;;;;29.02;18.88;;;10.60;99.90;;;;;;5010506;28;20489;-69
2022/11/15 07:34:48;;;;;;;33.35;19.33;;;10.60;99.90;;;;;;5012223;28;20038;-68
2022/11/15 07:37:14;;;;;;;31.80;19.25;;;10.70;99.90;;;;;;4996114;28;20041;-69
2022/11/15 07:39:39;;;;;;;28.63;17.65;;;10.70;99.90;;;;;;5012094;28;20482;-69
2022/11/15 07:44:49;;;;;;;29.10;19.30;;;10.70;99.90;;;;;;5016544;28;20050;-69
2022/11/15 07:47:14;;;;;;;32.45;19.58;;;10.70;99.90;;;;;;5015912;28;20593;-69
2022/11/15 07:49:40;;;;;;;29.00;18.05;;;10.80;99.90;;;;;;5016057;28;20405;-69
2022/11/15 07:52:05;;;;;;;27.42;18.17;;;10.80;99.90;;;;;;4999797;28;20042;-68
2022/11/15 07:54:31;;;;;;;26.95;17.80;;;10.80;99.90;;;;;;5016059;28;20042;-69
2022/11/15 07:56:57;;;;;;;26.83;17.00;;;10.80;99.90;;;;;;5016046;28;20406;-69
2022/11/15 07:59:22;;;;;;;31.50;17.67;;;10.90;99.90;;;;;;4999901;28;20040;-69
2022/11/15 08:01:48;;;;;;;28.17;17.65;;;10.90;99.90;;;;;;4998477;28;20490;-69
2022/11/15 08:04:13;;;;;;;27.55;17.48;;;10.90;99.90;;;;;;5014989;28;20054;-69
2022/11/15 08:06:39;;;;;;;25.95;16.63;;;10.90;99.90;;;;;;5015787;28;20555;-69
2022/11/15 08:09:04;;;;;;;24.25;16.85;;;11.00;99.90;;;;;;5015776;28;20042;-69
2022/11/15 08:11:30;;;;;;;27.52;16.45;;;11.00;99.90;;;;;;4999277;28;20042;-69
2022/11/15 08:13:56;;;;;;;26.27;17.15;;;11.00;99.90;;;;;;5015667;28;20096;-69
2022/11/15 08:16:21;;;;;;;24.95;16.88;;;11.00;99.90;;;;;;4999278;28;20042;-69
2022/11/15 08:18:47;;;;;;;22.45;14.32;;;11.00;99.90;;;;;;5015657;28;20405;-69
2022/11/15 08:21:17;;;;;;;28.08;17.58;;;11.10;99.90;;;;;;5015384;28;20476;-69
2022/11/15 08:23:42;;;;;;;23.83;15.65;;;11.10;99.90;;;;;;5015514;28;20038;-69
2022/11/15 08:26:08;;;;;;;22.33;15.88;;;11.10;99.90;;;;;;5015430;28;20405;-69
2022/11/15 08:28:34;;;;;;;24.95;15.48;;;11.10;99.90;;;;;;4999246;28;20557;-69
2022/11/15 08:31:00;;;;;;;22.08;15.70;;;11.20;99.90;;;;;;5009408;28;20125;-69
2022/11/15 08:33:25;;;;;;;24.02;15.88;;;11.20;99.90;;;;;;5008259;28;20041;-69
2022/11/15 08:35:51;;;;;;;22.48;16.40;;;11.20;99.90;;;;;;4998930;28;20512;-69
2022/11/15 08:38:16;;;;;;;26.33;16.48;;;11.20;99.90;;;;;;4998887;28;20512;-69
2022/11/15 08:40:42;;;;;;;23.10;16.52;;;11.20;99.90;;;;;;4998979;28;20042;-69
2022/11/15 08:43:08;;;;;;;23.38;16.48;;;11.30;99.90;;;;;;5015053;28;20041;-69
2022/11/15 08:45:34;;;;;;;24.92;16.65;;;11.30;99.90;;;;;;4998736;28;20037;-69
2022/11/15 08:48:02;;;;;;;21.20;16.23;;;11.40;99.90;;;;;;4998582;28;20564;-69
2022/11/15 08:50:27;;;;;;;24.63;16.08;;;11.40;99.90;;;;;;4998604;28;20088;-69
2022/11/15 08:52:53;;;;;;;22.30;16.58;;;11.50;99.90;;;;;;5014900;28;20049;-69
2022/11/15 08:55:19;;;;;;;22.40;16.23;;;11.50;99.90;;;;;;5013585;28;20049;-69
2022/11/15 08:57:45;;;;;;;23.40;16.23;;;11.50;99.90;;;;;;5014865;28;20045;-69
2022/11/15 09:00:12;;;;;;;24.88;16.58;;;11.50;99.90;;;;;;4998489;28;20050;-69
2022/11/15 09:02:39;;;;;;;22.88;16.00;;;11.50;99.90;;;;;;4990717;28;20042;-69
2022/11/15 09:05:05;;;;;;;21.92;15.70;;;11.50;99.90;;;;;;4982712;28;20125;-72
2022/11/15 09:07:31;;;;;;;23.63;16.52;;;11.60;99.90;;;;;;4995211;28;20104;-69
2022/11/15 09:09:57;;;;;;;24.00;15.68;;;11.70;99.90;;;;;;4978465;28;20506;-69
2022/11/15 09:12:24;;;;;;;25.08;16.38;;;11.80;99.90;;;;;;4995211;28;20124;-69
2022/11/15 09:14:50;;;;;;;24.15;16.30;;;11.90;99.90;;;;;;4978819;28;20491;-69
2022/11/15 09:17:15;;;;;;;22.88;16.25;;;11.90;99.90;;;;;;5006578;28;20048;-69
2022/11/15 09:19:41;;;;;;;23.02;15.55;;;12.00;99.90;;;;;;5014153;28;20092;-69
2022/11/15 09:22:07;;;;;;;23.67;15.70;;;12.10;99.90;;;;;;5013682;28;20046;-69
2022/11/15 09:24:34;;;;;;;21.80;15.65;;;12.20;99.90;;;;;;4996850;28;20508;-69
2022/11/15 09:26:59;;;;;;;20.15;15.00;;;12.10;99.90;;;;;;4996264;28;20502;-69
2022/11/15 09:29:25;;;;;;;21.50;14.88;;;12.10;99.90;;;;;;5014239;28;20041;-69
2022/11/15 09:31:53;;;;;;;20.08;15.52;;;12.20;99.90;;;;;;5011075;28;20452;-69
2022/11/15 09:34:20;;;;;;;21.98;15.38;;;12.20;99.90;;;;;;5012626;28;20038;-69
2022/11/15 09:36:46;;;;;;;20.38;14.63;;;12.30;99.90;;;;;;4996378;28;20037;-69
2022/11/15 09:39:12;;;;;;;21.38;14.48;;;12.30;99.90;;;;;;4997824;28;20049;-69
2022/11/15 09:42:12;;;;;;;20.88;15.02;;;12.30;99.90;;;;;;4991939;28;20038;-69
2022/11/15 09:44:59;;;;;;;22.27;14.00;;;12.40;99.90;;;;;;4994701;28;20399;-69
2022/11/15 09:47:43;;;;;;;20.67;14.88;;;12.40;99.90;;;;;;4978116;28;20046;-69
2022/11/15 09:50:12;;;;;;;18.20;12.77;;;12.40;99.90;;;;;;4999214;28;20528;-69
2022/11/15 09:52:41;;;;;;;17.67;13.57;;;12.40;99.90;;;;;;5013706;28;20041;-69
2022/11/15 09:55:10;;;;;;;19.05;13.80;;;12.40;99.90;;;;;;5013762;28;20053;-69
2022/11/15 09:58:00;;;;;;;18.95;13.00;;;12.50;99.90;;;;;;4993738;28;20458;-70
2022/11/15 10:00:38;;;;;;;18.13;12.75;;;12.50;99.90;;;;;;4997867;28;20457;-69
2022/11/15 10:03:15;;;;;;;19.67;12.85;;;12.50;99.90;;;;;;4993350;28;20045;-69
2022/11/15 10:05:48;;;;;;;18.15;13.35;;;12.50;99.90;;;;;;4993918;28;20042;-69
2022/11/15 10:08:28;;;;;;;20.13;13.15;;;12.40;99.90;;;;;;4990724;28;20068;-69
2022/11/15 10:11:03;;;;;;;17.55;12.93;;;12.50;99.90;;;;;;4994224;28;20038;-68
2022/11/15 10:13:35;;;;;;;16.65;12.07;;;12.50;99.90;;;;;;5006144;28;20272;-69
2022/11/15 10:16:28;;;;;;;18.42;12.43;;;12.50;99.90;;;;;;4985888;28;20092;-69
2022/11/15 10:19:02;;;;;;;15.63;11.73;;;12.70;99.90;;;;;;4970277;28;20072;-70
2022/11/15 10:21:49;;;;;;;16.52;11.68;;;12.70;99.90;;;;;;4990553;28;20402;-69
2022/11/15 10:24:23;;;;;;;15.57;11.32;;;12.70;99.90;;;;;;4996466;28;20053;-69
2022/11/15 10:26:49;;;;;;;16.80;11.95;;;12.70;99.90;;;;;;4990889;28;20506;-69
2022/11/15 10:29:20;;;;;;;14.77;11.57;;;12.60;99.90;;;;;;5003573;28;20044;-69
2022/11/15 10:31:46;;;;;;;14.75;11.38;;;12.70;99.90;;;;;;4986159;28;20038;-69
2022/11/15 10:34:20;;;;;;;15.07;10.98;;;12.70;99.90;;;;;;5003649;28;20045;-69
2022/11/15 10:36:53;;;;;;;15.88;10.73;;;12.80;99.90;;;;;;4985389;28;20132;-69
2022/11/15 10:39:19;;;;;;;16.02;10.32;;;12.70;99.90;;;;;;5002607;28;20050;-69
2022/11/15 10:41:44;;;;;;;14.80;9.57;;;12.60;99.90;;;;;;5002876;28;20049;-68
2022/11/15 10:44:16;;;;;;;15.93;12.05;;;12.70;99.90;;;;;;5002243;28;20168;-68
2022/11/15 10:46:43;;;;;;;15.13;11.95;;;12.90;99.90;;;;;;5003014;28;20395;-68
2022/11/15 10:49:21;;;;;;;14.50;11.02;;;12.80;99.90;;;;;;4988544;28;20042;-69
2022/11/15 10:51:58;;;;;;;15.18;12.05;;;12.70;99.90;;;;;;5011486;28;20056;-69
2022/11/15 10:54:42;;;;;;;16.88;11.20;;;12.60;99.90;;;;;;4992324;28;20554;-74
2022/11/15 10:57:14;;;;;;;13.90;10.63;;;12.80;99.90;;;;;;5025359;28;20038;-69
2022/11/15 11:00:07;;;;;;;15.00;11.25;;;12.80;99.90;;;;;;4995775;28;20045;-69
2022/11/15 11:02:41;;;;;;;14.93;11.00;;;12.80;99.90;;;;;;4995299;28;20049;-69
2022/11/15 11:05:31;;;;;;;13.93;10.70;;;12.70;99.90;;;;;;5011561;28;20050;-69
2022/11/15 11:08:01;;;;;;;14.23;10.45;;;12.60;99.90;;;;;;5011772;28;20038;-69
2022/11/15 11:10:27;;;;;;;14.70;10.00;;;12.70;99.90;;;;;;5011905;28;20513;-69
2022/11/15 11:12:53;;;;;;;16.23;11.18;;;12.60;99.90;;;;;;5011692;28;20045;-69
2022/11/15 11:15:19;;;;;;;16.83;11.10;;;12.60;99.90;;;;;;4995246;28;20418;-69
2022/11/15 11:17:57;;;;;;;16.05;10.68;;;12.50;99.90;;;;;;4995008;28;20041;-69
2022/11/15 11:20:33;;;;;;;14.15;9.82;;;12.50;99.90;;;;;;5001071;28;20053;-69
2022/11/15 11:23:31;;;;;;;13.15;8.60;;;12.60;99.90;;;;;;4986961;28;20093;-69
2022/11/15 11:26:38;;;;;;;11.60;8.73;;;12.70;99.90;;;;;;5003986;28;20375;-69
2022/11/15 11:29:45;;;;;;;11.52;7.78;;;12.60;99.90;;;;;;5000874;28;20490;-69
2022/11/15 11:32:46;;;;;;;10.55;6.97;;;12.70;99.90;;;;;;4958792;28;20054;-69
2022/11/15 11:35:18;;;;;;;9.98;7.00;;;12.70;99.90;;;;;;4958379;28;20046;-69
2022/11/15 11:37:51;;;;;;;10.47;7.53;;;12.70;99.90;;;;;;5001284;28;20045;-70
2022/11/15 11:40:35;;;;;;;12.13;7.65;;;12.60;99.90;;;;;;5011555;28;20038;-70
2022/11/15 11:43:20;;;;;;;11.85;8.05;;;12.60;99.90;;;;;;5007984;28;20034;-69
2022/11/15 11:46:23;;;;;;;13.00;7.45;;;12.60;99.90;;;;;;5010791;28;20038;-69
2022/11/15 11:49:04;;;;;;;10.70;7.10;;;12.70;99.90;;;;;;4983318;28;20038;-69
2022/11/15 11:51:55;;;;;;;10.60;6.68;;;12.80;99.90;;;;;;4995450;28;20088;-69
2022/11/15 11:54:30;;;;;;;12.68;7.32;;;12.80;99.90;;;;;;4985729;28;20077;-69
2022/11/15 11:56:59;;;;;;;11.27;7.57;;;12.90;99.90;;;;;;5009185;28;20077;-69
2022/11/15 11:59:42;;;;;;;10.80;6.55;;;12.90;99.90;;;;;;4993467;28;20088;-69
2022/11/15 12:02:38;;;;;;;9.25;6.47;;;12.90;99.90;;;;;;4977168;28;20053;-69
2022/11/15 12:05:28;;;;;;;10.52;6.78;;;12.80;99.90;;;;;;4985845;28;20046;-69
2022/11/15 12:08:02;;;;;;;11.98;6.05;;;12.90;99.90;;;;;;5011187;28;20037;-69
2022/11/15 12:10:32;;;;;;;9.02;5.70;;;12.80;99.90;;;;;;5009672;28;20041;-69
2022/11/15 12:13:06;;;;;;;12.77;6.57;;;12.80;99.90;;;;;;4994706;28;20147;-69
2022/11/15 12:15:39;;;;;;;9.18;5.47;;;12.90;99.90;;;;;;4994694;28;20548;-69
2022/11/15 12:18:12;;;;;;;9.27;4.25;;;12.90;99.90;;;;;;5010736;28;20459;-69
2022/11/15 12:20:47;;;;;;;8.00;4.40;;;12.80;99.90;;;;;;4991317;28;20044;-69
2022/11/15 12:23:21;;;;;;;8.98;4.40;;;12.90;99.90;;;;;;5001364;28;20084;-69
2022/11/15 12:25:53;;;;;;;9.73;4.65;;;12.80;99.90;;;;;;5003133;28;20450;-69
2022/11/15 12:28:35;;;;;;;9.85;4.45;;;12.70;99.90;;;;;;5007655;28;20042;-69
2022/11/15 12:31:31;;;;;;;8.32;4.78;;;12.90;99.90;;;;;;5010406;28;20049;-69
2022/11/15 12:33:58;;;;;;;8.73;4.80;;;12.90;99.90;;;;;;5003204;28;20125;-69
2022/11/15 12:36:23;;;;;;;7.53;3.85;;;12.90;99.90;;;;;;4993608;28;20038;-69
2022/11/15 12:39:02;;;;;;;10.52;5.00;;;12.90;99.90;;;;;;4989727;28;20104;-69
2022/11/15 12:41:29;;;;;;;9.40;4.80;;;13.10;99.90;;;;;;4994919;28;20073;-69
2022/11/15 12:43:55;;;;;;;8.35;4.93;;;13.00;99.90;;;;;;4995314;28;20046;-68
2022/11/15 12:46:30;;;;;;;10.02;5.25;;;12.90;99.90;;;;;;5000324;28;20049;-69
2022/11/15 12:49:02;;;;;;;9.25;4.82;;;13.00;99.90;;;;;;5014553;28;20394;-69
2022/11/15 12:51:42;;;;;;;8.70;4.18;;;12.90;99.90;;;;;;4997419;28;20049;-76
2022/11/15 12:54:23;;;;;;;7.95;4.13;;;12.80;99.90;;;;;;4996238;28;20132;-68
2022/11/15 12:57:07;;;;;;;10.50;4.47;;;12.90;99.90;;;;;;5030570;28;20049;-69
2022/11/15 12:59:54;;;;;;;10.43;4.38;;;12.90;99.90;;;;;;4998112;28;20140;-69
2022/11/15 13:02:29;;;;;;;7.72;4.18;;;12.90;99.90;;;;;;5013869;28;20054;-69
2022/11/15 13:07:40;;;;;;;10.93;6.50;;;12.90;99.90;;;;;;4994546;28;20138;-69
2022/11/15 13:10:11;;;;;;;10.82;5.47;;;12.90;99.90;;;;;;4995779;28;20132;-69